Time;durP1;ratioP1;P1;durP2;ratioP2;P2;SDS_P1;SDS_P2;PMS_P1;PMS_P2;Temp;Humidity;BMP_temperature;BMP_pressure;BME280_temperature;BME280_humidity;BME280_pressure;Samples;Min_cycle;Max_cycle;Signal;HPM_P1;HPM_P2
2024/01/01 00:00:08;;;;;;;48.43;27.03;;;;;;;7.73;84.59;99634.78;4936638;28;20261;-72
2024/01/01 00:03:05;;;;;;;55.47;30.20;;;;;;;7.62;85.23;99645.53;4940210;28;20212;-72
2024/01/01 00:12:32;;;;;;;74.07;41.50;;;;;;;7.62;85.59;99619.16;4925053;28;20307;-72
2024/01/01 00:18:14;;;;;;;68.50;36.47;;;;;;;7.69;85.54;99625.50;5006676;28;20210;-71
2024/01/01 00:21:19;;;;;;;60.40;33.17;;;;;;;7.71;85.75;99620.91;5011547;28;20199;-72
2024/01/01 00:24:05;;;;;;;54.97;29.53;;;;;;;7.72;85.61;99622.56;5006245;28;20248;-71
2024/01/01 00:26:54;;;;;;;47.37;25.47;;;;;;;7.76;85.69;99625.69;5008903;28;20252;-73
2024/01/01 00:29:56;;;;;;;41.93;23.57;;;;;;;7.73;85.90;99620.75;5050810;28;20241;-71
2024/01/01 00:39:52;;;;;;;38.37;21.60;;;;;;;7.60;87.35;99621.09;4977619;28;20510;-71
2024/01/01 00:42:20;;;;;;;36.50;20.40;;;;;;;7.59;87.65;99623.88;4983048;28;20234;-72
2024/01/01 00:44:57;;;;;;;36.33;20.83;;;;;;;7.58;87.63;99623.06;4984261;28;20221;-71
2024/01/01 00:47:40;;;;;;;32.97;18.93;;;;;;;7.56;88.10;99630.31;4955302;28;20262;-71
2024/01/01 00:50:20;;;;;;;29.23;16.00;;;;;;;7.53;88.35;99614.78;4984732;28;20208;-71
2024/01/01 00:53:03;;;;;;;29.53;15.63;;;;;;;7.50;88.76;99615.88;4987990;28;20231;-73
2024/01/01 00:55:41;;;;;;;28.53;14.10;;;;;;;7.56;88.60;99619.75;5076636;28;20206;-72
2024/01/01 00:58:28;;;;;;;31.23;14.93;;;;;;;7.54;88.71;99629.63;5068243;28;20250;-71
2024/01/01 01:01:09;;;;;;;;;;;;;;;;;;;;;
2024/01/01 01:04:37;;;;;;;27.53;14.97;;;;;;;7.66;87.72;99619.66;4980931;28;20221;-71
2024/01/01 01:10:14;;;;;;;42.50;18.67;;;;;;;7.71;86.69;99627.97;4983000;28;20209;-73
2024/01/01 01:16:54;;;;;;;34.53;17.40;;;;;;;7.71;86.32;99628.81;5076778;28;20243;-71
2024/01/01 01:23:38;;;;;;;27.53;14.83;;;;;;;7.76;86.65;99641.53;5045259;28;20589;-71
2024/01/01 01:29:43;;;;;;;29.57;14.70;;;;;;;7.83;87.27;99645.22;4952702;28;20304;-72
2024/01/01 01:32:20;;;;;;;32.43;15.90;;;;;;;7.86;87.03;99642.31;5060074;28;20818;-72
2024/01/01 01:42:17;;;;;;;26.27;12.63;;;;;;;7.99;85.19;99653.31;5040217;28;20219;-71
2024/01/01 01:45:37;;;;;;;;;;;;;;;;;;;;;
2024/01/01 01:56:10;;;;;;;17.93;7.20;;;;;;;8.20;83.88;99650.34;4942237;28;20367;-72
2024/01/01 02:12:12;;;;;;;7.37;2.60;;;;;;;8.51;79.93;99654.28;4915899;29;20286;-72
2024/01/01 02:14:58;;;;;;;12.73;2.97;;;;;;;8.59;79.53;99645.56;4977306;28;20215;-73
2024/01/01 02:21:40;;;;;;;8.97;2.97;;;;;;;8.48;78.74;99654.56;5071479;28;20794;-72
2024/01/01 02:32:25;;;;;;;7.63;2.17;;;;;;;8.83;75.96;99640.41;5020288;28;20332;-74
2024/01/01 02:43:05;;;;;;;12.57;2.57;;;;;;;8.78;75.18;99647.19;4978481;28;20330;-72
2024/01/01 02:56:31;;;;;;;15.27;2.67;;;;;;;8.85;73.85;99677.28;4869993;29;20299;-72
2024/01/01 02:59:21;;;;;;;9.27;2.67;;;;;;;8.89;73.44;99683.91;4896603;28;20224;-72
2024/01/01 03:03:10;;;;;;;;;;;;;;;;;;;;;
2024/01/01 03:09:41;;;;;;;10.30;2.13;;;;;;;8.97;71.32;99690.06;4935750;28;20243;-72
2024/01/01 03:12:57;;;;;;;10.80;1.70;;;;;;;9.03;71.17;99692.09;4997635;28;20214;-72
2024/01/01 03:19:25;;;;;;;10.77;1.90;;;;;;;9.14;70.60;99680.44;4960728;28;20225;-71
2024/01/01 03:22:06;;;;;;;12.50;1.83;;;;;;;9.16;70.29;99665.22;4960510;28;20211;-73
2024/01/01 03:27:25;;;;;;;8.43;1.33;;;;;;;9.13;70.11;99670.81;5070309;28;20565;-75
2024/01/01 03:29:54;;;;;;;8.83;1.80;;;;;;;9.14;70.40;99677.78;5075357;28;20503;-72
2024/01/01 03:32:22;;;;;;;9.20;1.40;;;;;;;9.13;70.34;99676.13;5073508;28;20219;-72
2024/01/01 03:34:52;;;;;;;8.07;1.60;;;;;;;9.17;70.22;99674.81;5079048;28;20204;-72
2024/01/01 03:37:19;;;;;;;8.80;1.57;;;;;;;9.12;69.74;99674.47;5078930;28;20205;-72
2024/01/01 03:39:47;;;;;;;8.10;1.73;;;;;;;9.15;70.21;99671.47;5074868;28;20253;-71
2024/01/01 03:42:15;;;;;;;13.40;1.60;;;;;;;9.16;70.16;99681.06;5078615;28;20213;-72
2024/01/01 03:44:43;;;;;;;12.80;1.93;;;;;;;9.19;69.90;99664.06;5078830;28;20263;-71
2024/01/01 03:47:12;;;;;;;8.87;1.47;;;;;;;9.15;69.89;99678.63;5078496;28;20294;-71
2024/01/01 03:49:40;;;;;;;5.67;1.13;;;;;;;9.10;69.89;99676.44;5079385;28;20224;-72
2024/01/01 03:52:10;;;;;;;10.40;2.30;;;;;;;9.11;69.82;99672.78;5074948;28;20211;-72
2024/01/01 03:54:38;;;;;;;7.17;1.60;;;;;;;9.10;69.18;99673.78;5074110;28;20389;-67
2024/01/01 03:57:06;;;;;;;10.13;1.60;;;;;;;9.08;68.93;99686.31;5080237;28;20275;-71
2024/01/01 03:59:36;;;;;;;12.17;1.87;;;;;;;9.17;68.74;99677.44;5076843;28;20211;-72
2024/01/01 04:02:12;;;;;;;4.90;1.53;;;;;;;9.17;68.80;99672.16;5077285;28;20195;-72
2024/01/01 04:04:43;;;;;;;7.17;1.27;;;;;;;9.15;69.35;99668.84;5078037;28;20585;-72
2024/01/01 04:07:16;;;;;;;13.17;3.07;;;;;;;9.15;69.45;99668.84;5078407;28;20207;-71
2024/01/01 04:09:47;;;;;;;8.20;1.60;;;;;;;9.21;69.33;99672.69;5078499;28;20247;-72
2024/01/01 04:12:15;;;;;;;8.90;1.43;;;;;;;9.22;69.09;99675.16;5075778;28;20207;-72
2024/01/01 04:14:43;;;;;;;10.27;1.50;;;;;;;9.24;69.17;99678.47;5077684;28;20208;-72
2024/01/01 04:17:12;;;;;;;9.13;1.63;;;;;;;9.24;69.23;99683.75;5079049;28;20948;-73
2024/01/01 04:19:44;;;;;;;7.10;1.60;;;;;;;9.24;69.28;99683.75;5076982;28;20325;-74
2024/01/01 04:22:13;;;;;;;6.87;1.67;;;;;;;9.23;68.92;99676.84;5076610;28;20706;-72
2024/01/01 04:24:45;;;;;;;8.20;1.77;;;;;;;9.15;69.25;99684.69;5078427;28;20310;-71
2024/01/01 04:27:13;;;;;;;12.03;1.50;;;;;;;9.17;69.48;99690.66;5076541;28;20285;-71
2024/01/01 04:29:41;;;;;;;7.00;1.33;;;;;;;9.19;69.49;99686.06;5077960;28;20700;-73
2024/01/01 04:32:09;;;;;;;7.20;1.60;;;;;;;9.23;69.15;99695.34;5074619;28;20681;-74
2024/01/01 04:34:37;;;;;;;7.83;1.63;;;;;;;9.26;69.09;99710.88;5076690;28;20209;-74
2024/01/01 04:37:05;;;;;;;10.10;2.07;;;;;;;9.27;69.70;99709.91;5078539;28;20286;-75
2024/01/01 04:39:33;;;;;;;4.53;1.13;;;;;;;9.29;69.90;99717.69;5078132;28;20843;-71
2024/01/01 04:42:03;;;;;;;4.53;1.20;;;;;;;9.31;70.74;99713.06;5074936;28;20209;-71
2024/01/01 04:44:31;;;;;;;10.77;2.10;;;;;;;9.35;71.47;99730.28;5074353;28;20211;-74
2024/01/01 04:47:08;;;;;;;10.40;1.60;;;;;;;9.30;72.76;99711.41;5077745;28;20210;-73
2024/01/01 04:49:45;;;;;;;7.07;1.30;;;;;;;9.27;73.35;99717.00;5075338;28;20235;-71
2024/01/01 04:52:17;;;;;;;8.10;1.50;;;;;;;9.26;73.41;99712.69;5074601;28;20198;-73
2024/01/01 04:54:45;;;;;;;5.57;1.10;;;;;;;9.17;73.96;99708.34;5078435;28;20209;-74
2024/01/01 04:57:18;;;;;;;5.53;1.10;;;;;;;9.06;74.38;99710.28;5075835;28;20234;-72
2024/01/01 04:59:46;;;;;;;5.10;0.83;;;;;;;8.96;74.74;99711.41;5077620;28;20690;-72
2024/01/01 05:02:18;;;;;;;3.37;1.10;;;;;;;8.94;74.89;99718.66;5077393;28;20662;-72
2024/01/01 05:04:49;;;;;;;3.33;0.53;;;;;;;8.86;74.72;99713.31;5075962;28;20212;-72
2024/01/01 05:07:17;;;;;;;2.97;0.67;;;;;;;8.87;74.63;99725.53;5074602;28;20207;-71
2024/01/01 05:09:46;;;;;;;3.37;0.70;;;;;;;8.87;74.61;99725.53;5076100;28;20233;-73
2024/01/01 05:12:16;;;;;;;3.63;0.70;;;;;;;8.91;74.66;99718.94;5071537;28;20271;-73
2024/01/01 05:14:47;;;;;;;3.00;0.70;;;;;;;8.84;75.01;99717.91;5074780;28;20354;-73
2024/01/01 05:17:15;;;;;;;5.00;1.00;;;;;;;8.79;75.95;99725.50;5075626;28;20199;-73
2024/01/01 05:19:43;;;;;;;6.53;0.93;;;;;;;8.80;76.08;99719.19;5077472;28;20207;-71
2024/01/01 05:22:12;;;;;;;6.17;1.37;;;;;;;8.82;76.21;99723.34;5075778;28;20211;-72
2024/01/01 05:24:40;;;;;;;5.53;1.10;;;;;;;8.82;76.45;99722.53;5077429;28;20231;-72
2024/01/01 05:27:09;;;;;;;8.20;0.80;;;;;;;8.81;76.48;99719.03;5079447;28;20686;-72
2024/01/01 05:29:41;;;;;;;6.73;1.23;;;;;;;8.79;76.65;99725.50;5073897;28;20272;-71
2024/01/01 05:32:09;;;;;;;7.07;1.10;;;;;;;8.75;76.59;99730.25;5076678;28;20260;-72
2024/01/01 05:34:40;;;;;;;4.53;1.10;;;;;;;8.79;76.35;99725.50;5077985;28;20242;-72
2024/01/01 05:37:09;;;;;;;8.20;1.40;;;;;;;8.85;76.31;99724.88;5075249;28;20210;-72
2024/01/01 05:39:37;;;;;;;4.70;1.20;;;;;;;8.84;75.76;99717.91;5075640;28;20712;-72
2024/01/01 05:42:05;;;;;;;8.27;1.53;;;;;;;8.83;75.77;99718.91;5074733;28;20215;-71
2024/01/01 05:45:02;;;;;;;11.77;2.03;;;;;;;8.79;75.27;99723.69;5076845;28;20563;-71
2024/01/01 05:47:30;;;;;;;25.10;2.10;;;;;;;8.81;74.69;99720.84;5067359;28;20202;-71
2024/01/01 05:49:58;;;;;;;6.47;1.87;;;;;;;8.82;74.92;99739.22;5076189;28;20230;-72
2024/01/01 05:52:31;;;;;;;9.03;2.00;;;;;;;8.87;74.79;99731.66;5076275;28;20298;-71
2024/01/01 05:55:04;;;;;;;10.90;1.87;;;;;;;8.91;74.43;99727.72;5076031;28;20290;-71
2024/01/01 05:57:32;;;;;;;8.63;2.97;;;;;;;8.86;74.10;99726.53;5076274;28;20203;-73
2024/01/01 06:00:03;;;;;;;13.50;1.90;;;;;;;8.86;74.13;99721.25;5078422;28;20557;-71
2024/01/01 06:02:36;;;;;;;13.70;2.10;;;;;;;8.86;74.01;99721.25;5076392;28;20215;-73
2024/01/01 06:05:06;;;;;;;12.63;1.83;;;;;;;8.90;73.88;99727.88;5078470;28;20213;-72
2024/01/01 06:07:34;;;;;;;12.80;2.00;;;;;;;8.90;73.86;99717.28;5073060;28;20618;-71
2024/01/01 06:10:03;;;;;;;10.87;1.83;;;;;;;8.87;73.60;99728.19;5073424;28;20782;-72
2024/01/01 06:12:31;;;;;;;13.57;2.17;;;;;;;8.82;73.26;99733.09;5074783;28;21060;-74
2024/01/01 06:15:01;;;;;;;7.17;1.83;;;;;;;8.79;72.63;99726.31;5075588;28;20210;-72
2024/01/01 06:17:30;;;;;;;19.23;1.90;;;;;;;8.79;72.42;99730.78;5072835;28;20838;-72
2024/01/01 06:20:01;;;;;;;10.60;1.93;;;;;;;8.79;72.34;99731.63;5073419;28;20211;-71
2024/01/01 06:22:29;;;;;;;10.57;1.87;;;;;;;8.78;72.26;99739.69;5074462;28;20300;-72
2024/01/01 06:24:59;;;;;;;10.67;1.53;;;;;;;8.77;72.04;99738.03;5076250;28;20272;-72
2024/01/01 06:27:27;;;;;;;12.43;2.57;;;;;;;8.77;71.73;99748.59;5074273;28;20211;-70
2024/01/01 06:29:54;;;;;;;15.53;2.40;;;;;;;8.70;71.60;99750.22;5072986;28;20243;-73
2024/01/01 06:32:27;;;;;;;7.83;1.97;;;;;;;8.74;71.82;99751.53;5074936;28;20219;-72
2024/01/01 06:34:55;;;;;;;14.77;1.83;;;;;;;8.83;71.65;99753.25;5073671;28;20203;-74
2024/01/01 06:37:23;;;;;;;9.67;1.70;;;;;;;8.82;71.22;99759.53;5074511;28;20209;-74
2024/01/01 06:40:10;;;;;;;10.93;1.53;;;;;;;8.86;70.99;99764.38;5074963;28;20408;-73
2024/01/01 06:42:38;;;;;;;12.60;1.83;;;;;;;8.82;70.73;99778.88;5074436;28;20207;-71
2024/01/01 06:45:10;;;;;;;12.27;2.30;;;;;;;8.71;70.69;99776.47;5074767;28;20269;-71
2024/01/01 06:47:39;;;;;;;8.77;2.03;;;;;;;8.66;70.87;99774.28;5073944;28;20199;-71
2024/01/01 06:50:08;;;;;;;7.97;1.77;;;;;;;8.64;70.75;99789.47;5076784;28;20908;-71
2024/01/01 06:52:36;;;;;;;8.07;1.97;;;;;;;8.68;70.92;99787.34;5077054;28;20892;-73
2024/01/01 06:55:05;;;;;;;9.87;1.97;;;;;;;8.68;70.56;99790.84;5076259;28;20207;-68
2024/01/01 06:57:33;;;;;;;13.60;2.63;;;;;;;8.67;70.78;99802.38;5074124;28;20291;-71
2024/01/01 07:00:02;;;;;;;11.43;2.67;;;;;;;8.77;70.75;99796.19;5073499;28;20211;-71
2024/01/01 07:02:30;;;;;;;11.10;2.60;;;;;;;8.82;70.33;99796.53;5073409;28;20206;-71
2024/01/01 07:05:04;;;;;;;9.70;2.30;;;;;;;8.80;70.46;99798.50;5073968;28;21006;-70
2024/01/01 07:07:33;;;;;;;12.57;2.20;;;;;;;8.82;70.45;99793.91;5074935;28;20517;-72
2024/01/01 07:10:02;;;;;;;12.93;2.53;;;;;;;8.83;70.41;99798.22;5079875;28;20234;-72
2024/01/01 07:12:33;;;;;;;10.87;1.77;;;;;;;8.90;70.21;99812.47;5078011;28;20335;-73
2024/01/01 07:15:04;;;;;;;8.57;2.03;;;;;;;8.95;69.85;99811.03;5074877;28;20230;-71
2024/01/01 07:17:32;;;;;;;9.33;1.33;;;;;;;9.03;69.35;99828.78;5078664;28;20216;-72
2024/01/01 07:20:00;;;;;;;12.30;2.20;;;;;;;9.02;68.24;99813.91;5079400;28;20747;-73
2024/01/01 07:22:30;;;;;;;11.87;2.20;;;;;;;9.02;68.10;99822.66;5076782;28;20221;-73
2024/01/01 07:24:58;;;;;;;9.23;1.83;;;;;;;9.06;68.15;99831.09;5076112;28;20234;-71
2024/01/01 07:27:25;;;;;;;11.33;1.83;;;;;;;9.11;68.24;99831.50;5077279;22;20362;-70
2024/01/01 07:29:53;;;;;;;12.97;2.77;;;;;;;9.22;67.92;99833.88;5065735;28;20573;-71
2024/01/01 07:32:21;;;;;;;14.43;2.13;;;;;;;9.23;67.65;99840.84;5047294;28;21325;-70
2024/01/01 07:34:49;;;;;;;11.97;2.20;;;;;;;9.21;67.40;99850.75;5064360;28;20896;-72
2024/01/01 07:37:17;;;;;;;10.10;1.50;;;;;;;9.23;67.37;99846.13;5058309;28;20219;-71
2024/01/01 07:39:46;;;;;;;10.13;2.13;;;;;;;9.28;67.30;99854.44;5059062;28;20286;-70
2024/01/01 07:42:15;;;;;;;14.60;2.07;;;;;;;9.28;67.34;99854.44;5056463;28;20217;-71
2024/01/01 07:44:43;;;;;;;15.53;3.00;;;;;;;9.29;67.39;99850.78;5058459;28;20299;-69
2024/01/01 07:47:11;;;;;;;10.77;2.10;;;;;;;9.34;67.14;99845.84;5059759;28;20323;-70
2024/01/01 07:49:39;;;;;;;12.73;1.97;;;;;;;9.39;67.12;99845.41;5058788;28;20371;-72
2024/01/01 07:52:07;;;;;;;15.20;2.53;;;;;;;9.39;67.01;99843.59;5057366;28;20259;-70
2024/01/01 07:54:36;;;;;;;11.20;2.20;;;;;;;9.39;67.18;99846.25;5055415;28;20273;-71
2024/01/01 07:57:06;;;;;;;16.67;2.63;;;;;;;9.36;66.81;99856.28;5059561;28;20299;-71
2024/01/01 07:59:34;;;;;;;12.30;3.07;;;;;;;9.37;66.93;99858.78;5055518;28;20217;-71
2024/01/01 08:02:01;;;;;;;10.03;2.20;;;;;;;9.37;66.77;99866.72;5056879;28;20245;-70
2024/01/01 08:04:29;;;;;;;15.17;2.10;;;;;;;9.34;67.29;99874.13;5057308;28;20745;-70
2024/01/01 08:06:57;;;;;;;13.57;2.13;;;;;;;9.22;69.01;99870.94;5056843;28;20209;-71
2024/01/01 08:09:25;;;;;;;10.13;1.93;;;;;;;9.24;70.29;99862.81;5058857;28;20282;-74
2024/01/01 08:11:53;;;;;;;12.77;2.13;;;;;;;9.20;71.29;99854.38;5055794;28;21472;-69
2024/01/01 08:14:22;;;;;;;14.87;2.47;;;;;;;9.28;71.45;99854.44;5057601;28;20220;-71
2024/01/01 08:16:50;;;;;;;14.87;2.57;;;;;;;9.35;71.90;99852.81;5056604;28;20205;-72
2024/01/01 08:19:18;;;;;;;15.13;2.20;;;;;;;9.40;71.79;99873.53;5053550;28;20216;-70
2024/01/01 08:21:46;;;;;;;13.47;2.40;;;;;;;9.45;72.22;99871.25;5055807;28;20206;-70
2024/01/01 08:24:13;;;;;;;11.60;2.17;;;;;;;9.42;73.10;99871.53;5059018;28;20257;-70
2024/01/01 08:26:41;;;;;;;13.80;2.07;;;;;;;9.38;74.01;99863.09;5063516;28;20216;-71
2024/01/01 08:29:09;;;;;;;13.93;2.30;;;;;;;9.36;73.93;99875.66;5062022;28;20260;-71
2024/01/01 08:31:39;;;;;;;10.33;2.70;;;;;;;9.33;74.54;99877.75;5060737;28;20966;-71
2024/01/01 08:34:06;;;;;;;14.60;2.73;;;;;;;9.27;75.72;99924.19;5067539;28;20236;-70
2024/01/01 08:36:34;;;;;;;11.27;2.13;;;;;;;9.21;76.60;99913.41;5070430;28;20253;-71
2024/01/01 08:39:03;;;;;;;9.27;2.10;;;;;;;9.19;76.98;99899.50;5071673;28;20449;-70
2024/01/01 08:41:31;;;;;;;13.53;2.30;;;;;;;9.13;76.86;99887.72;5071090;28;20235;-70
2024/01/01 08:43:59;;;;;;;9.07;1.77;;;;;;;9.17;77.26;99893.50;5069692;28;20212;-71
2024/01/01 08:46:27;;;;;;;6.83;1.70;;;;;;;9.22;76.90;99889.44;5068585;28;20662;-71
2024/01/01 08:48:56;;;;;;;7.33;1.70;;;;;;;9.31;76.35;99885.88;5073977;28;20211;-71
2024/01/01 08:51:24;;;;;;;7.90;1.40;;;;;;;9.41;75.45;99888.44;5069618;28;20322;-73
2024/01/01 08:53:52;;;;;;;6.87;1.10;;;;;;;9.51;74.26;99893.59;5073587;28;20208;-70
2024/01/01 08:56:20;;;;;;;7.70;1.10;;;;;;;9.50;73.88;99890.13;5072904;28;20540;-71
2024/01/01 08:58:48;;;;;;;11.80;1.20;;;;;;;9.48;73.66;99886.81;5073427;28;20754;-71
2024/01/01 09:01:16;;;;;;;7.50;1.37;;;;;;;9.44;73.58;99886.28;5067346;28;20212;-72
2024/01/01 09:03:44;;;;;;;6.40;1.30;;;;;;;9.44;73.72;99891.56;5065266;28;20211;-69
2024/01/01 09:06:13;;;;;;;7.43;1.20;;;;;;;9.51;73.76;99894.44;5063741;28;20210;-68
2024/01/01 09:08:43;;;;;;;7.20;1.80;;;;;;;9.50;73.77;99897.25;5054132;28;20288;-70
2024/01/01 09:11:11;;;;;;;9.33;1.70;;;;;;;9.53;73.05;99900.41;5054617;28;20719;-70
2024/01/01 09:13:38;;;;;;;10.87;1.83;;;;;;;9.55;72.33;99901.09;5056739;28;20203;-71
2024/01/01 09:16:06;;;;;;;11.67;1.93;;;;;;;9.50;71.42;99915.78;5057426;28;20219;-70
2024/01/01 09:18:34;;;;;;;16.77;3.07;;;;;;;9.50;71.50;99916.59;5056548;28;20231;-70
2024/01/01 09:21:02;;;;;;;11.07;2.87;;;;;;;9.53;70.38;99928.69;5053727;28;20262;-70
2024/01/01 09:23:31;;;;;;;16.47;2.60;;;;;;;9.49;70.63;99930.00;5054749;28;20224;-70
2024/01/01 09:25:59;;;;;;;10.30;1.70;;;;;;;9.51;70.76;99935.94;5054978;28;20322;-70
2024/01/01 09:28:27;;;;;;;12.57;2.07;;;;;;;9.47;70.72;99935.44;5055392;28;20244;-70
2024/01/01 09:30:55;;;;;;;13.13;1.73;;;;;;;9.70;70.20;99941.06;5051760;28;20209;-72
2024/01/01 09:33:23;;;;;;;12.80;2.20;;;;;;;9.91;69.90;99949.47;5055965;28;20239;-71
2024/01/01 09:35:52;;;;;;;8.10;1.73;;;;;;;10.24;68.82;99949.66;5057631;28;20239;-71
2024/01/01 09:38:20;;;;;;;7.13;1.63;;;;;;;10.55;67.78;99938.34;5053452;28;20735;-69
2024/01/01 09:40:49;;;;;;;11.43;2.43;;;;;;;10.65;66.62;99940.03;5055487;28;20206;-70
2024/01/01 09:43:18;;;;;;;7.77;1.37;;;;;;;10.76;66.73;99940.59;5052651;28;20549;-71
2024/01/01 09:45:48;;;;;;;9.00;2.00;;;;;;;10.97;64.83;99947.28;5056259;28;20893;-70
2024/01/01 09:48:16;;;;;;;5.23;1.40;;;;;;;11.06;64.35;99933.03;5054034;28;20219;-70
2024/01/01 09:50:44;;;;;;;9.67;1.63;;;;;;;11.31;63.67;99940.00;5056455;28;20200;-71
2024/01/01 09:53:12;;;;;;;7.93;1.63;;;;;;;11.45;63.06;99931.38;5051615;28;20802;-70
2024/01/01 09:55:40;;;;;;;9.77;1.40;;;;;;;11.67;62.04;99943.16;5052981;28;20212;-70
2024/01/01 09:58:09;;;;;;;5.13;1.20;;;;;;;11.69;62.30;99947.31;5054772;28;20235;-70
2024/01/01 10:00:37;;;;;;;10.53;1.53;;;;;;;11.69;61.90;99939.34;5056521;28;20207;-71
2024/01/01 10:03:10;;;;;;;6.40;1.50;;;;;;;11.66;62.36;99941.47;5052715;28;20217;-71
2024/01/01 10:05:39;;;;;;;6.90;1.70;;;;;;;11.66;61.82;99944.97;5055968;28;20208;-70
2024/01/01 10:08:09;;;;;;;10.30;1.47;;;;;;;11.59;61.93;99937.84;5052229;28;20204;-73
2024/01/01 10:10:37;;;;;;;10.90;1.53;;;;;;;11.44;61.66;99952.75;5054074;28;20207;-70
2024/01/01 10:13:11;;;;;;;5.80;1.30;;;;;;;11.29;62.47;99944.63;5053456;28;20270;-70
2024/01/01 10:15:40;;;;;;;9.30;2.20;;;;;;;11.07;63.30;99940.00;5052435;28;20207;-71
2024/01/01 10:18:10;;;;;;;9.17;1.97;;;;;;;10.97;63.80;99928.69;5053227;28;21014;-71
2024/01/01 10:20:39;;;;;;;5.33;1.40;;;;;;;10.98;63.35;99933.84;5053467;28;20803;-72
2024/01/01 10:23:26;;;;;;;7.73;1.70;;;;;;;10.88;63.69;99920.72;5052939;28;20258;-71
2024/01/01 10:26:03;;;;;;;10.60;1.83;;;;;;;10.86;63.96;99929.84;5051231;28;20212;-70
2024/01/01 10:28:33;;;;;;;11.17;2.10;;;;;;;10.82;64.70;99944.41;5056511;28;20203;-69
2024/01/01 10:31:02;;;;;;;9.13;1.67;;;;;;;10.87;64.46;99936.81;5050889;28;20203;-70
2024/01/01 10:33:32;;;;;;;11.07;1.53;;;;;;;10.83;64.09;99938.94;5053733;28;20346;-72
2024/01/01 10:36:02;;;;;;;10.93;1.47;;;;;;;10.83;63.35;99941.59;5052683;28;20227;-70
2024/01/01 10:38:31;;;;;;;12.20;1.73;;;;;;;10.75;64.26;99944.22;5056747;28;20285;-71
2024/01/01 10:41:00;;;;;;;12.40;2.43;;;;;;;10.76;64.25;99948.53;5052425;28;20208;-71
2024/01/01 10:43:28;;;;;;;10.80;2.30;;;;;;;10.87;64.27;99948.25;5054801;28;20307;-71
2024/01/01 10:46:03;;;;;;;10.27;1.93;;;;;;;10.75;64.39;99959.31;5052523;28;20203;-71
2024/01/01 10:48:32;;;;;;;10.00;2.20;;;;;;;10.57;65.21;99956.75;5056071;28;20242;-70
2024/01/01 10:51:11;;;;;;;11.03;2.07;;;;;;;10.45;66.30;99966.00;5050495;28;20212;-71
2024/01/01 10:54:00;;;;;;;13.77;1.77;;;;;;;10.43;66.11;99970.63;5053452;28;20227;-71
2024/01/01 10:56:39;;;;;;;11.17;2.10;;;;;;;10.27;66.49;99971.41;5054204;28;20214;-70
2024/01/01 10:59:18;;;;;;;13.43;2.07;;;;;;;10.21;66.99;99973.81;5054521;28;20260;-72
2024/01/01 11:01:50;;;;;;;9.43;1.93;;;;;;;10.18;66.38;99973.19;5054194;28;20975;-70
2024/01/01 11:04:20;;;;;;;8.43;1.57;;;;;;;10.18;66.65;99969.69;5053629;28;20243;-72
2024/01/01 11:06:48;;;;;;;7.93;1.60;;;;;;;10.26;66.50;99974.19;5053978;28;20203;-71
2024/01/01 11:09:33;;;;;;;8.37;1.80;;;;;;;10.12;66.80;99976.41;5053284;28;20288;-72
2024/01/01 11:12:02;;;;;;;11.23;2.23;;;;;;;10.08;67.51;99975.06;5053370;28;20225;-70
2024/01/01 11:14:31;;;;;;;9.47;1.83;;;;;;;10.18;67.29;99967.03;5050897;28;20589;-71
2024/01/01 11:17:03;;;;;;;9.80;1.70;;;;;;;10.31;67.10;99962.13;5054383;28;20290;-70
2024/01/01 11:19:39;;;;;;;7.67;1.60;;;;;;;10.29;66.83;99971.25;5054817;28;20215;-73
2024/01/01 11:22:41;;;;;;;14.93;2.10;;;;;;;10.48;66.33;99971.81;5053040;28;20208;-71
2024/01/01 11:25:09;;;;;;;7.87;2.17;;;;;;;10.61;66.16;99960.78;4992093;28;20322;-71
2024/01/01 11:27:47;;;;;;;10.03;1.90;;;;;;;10.69;65.64;99968.75;5039828;28;20816;-70
2024/01/01 11:30:16;;;;;;;9.30;1.87;;;;;;;10.91;64.93;99962.81;5053429;28;20210;-71
2024/01/01 11:32:45;;;;;;;14.27;2.27;;;;;;;10.86;65.09;99970.47;5052189;28;20242;-72
2024/01/01 11:35:16;;;;;;;11.50;2.10;;;;;;;10.75;65.17;99965.44;5054485;28;20223;-71
2024/01/01 11:37:46;;;;;;;12.10;1.90;;;;;;;10.67;65.68;99959.28;5051150;28;20214;-72
2024/01/01 11:40:14;;;;;;;9.27;2.33;;;;;;;10.60;66.31;99964.41;5053475;28;20214;-71
2024/01/01 11:42:42;;;;;;;10.67;2.50;;;;;;;10.52;67.67;99969.69;5052997;28;20608;-73
2024/01/01 11:45:11;;;;;;;7.47;1.97;;;;;;;10.53;68.56;99964.22;5053533;28;20211;-72
2024/01/01 11:47:40;;;;;;;10.87;2.00;;;;;;;10.50;69.24;99961.06;5053933;28;20658;-75
2024/01/01 11:50:11;;;;;;;14.13;2.23;;;;;;;10.43;68.90;99957.38;5052253;28;20215;-71
2024/01/01 11:52:41;;;;;;;12.80;2.10;;;;;;;10.32;68.49;99960.31;5054096;28;20223;-71
2024/01/01 11:55:09;;;;;;;13.87;2.43;;;;;;;10.31;68.42;99964.78;5053780;28;20322;-71
2024/01/01 11:57:42;;;;;;;7.73;1.87;;;;;;;10.34;68.71;99958.34;5057606;28;20277;-71
2024/01/01 12:00:11;;;;;;;9.40;2.20;;;;;;;10.38;68.32;99968.44;5056641;28;20219;-71
2024/01/01 12:02:39;;;;;;;12.60;1.40;;;;;;;10.40;67.51;99974.44;5056793;28;20691;-71
2024/01/01 12:05:08;;;;;;;6.30;1.50;;;;;;;10.51;67.11;99965.38;5054764;28;20632;-70
2024/01/01 12:07:38;;;;;;;8.67;1.60;;;;;;;10.71;66.27;99969.41;5057629;28;20660;-71
2024/01/01 12:10:08;;;;;;;8.27;1.93;;;;;;;10.79;66.39;99966.78;5053576;28;20820;-70
2024/01/01 12:12:36;;;;;;;10.47;2.07;;;;;;;10.83;66.21;99964.63;5054444;28;20246;-70
2024/01/01 12:15:11;;;;;;;11.97;2.37;;;;;;;10.83;66.44;99968.13;5059200;28;20260;-73
2024/01/01 12:17:43;;;;;;;7.53;2.20;;;;;;;10.94;66.41;99978.44;5057965;28;20288;-71
2024/01/01 12:20:15;;;;;;;13.40;2.37;;;;;;;10.97;66.72;99965.84;5053551;28;20217;-71
2024/01/01 12:22:45;;;;;;;9.73;2.03;;;;;;;10.98;67.08;99967.50;5056063;28;20208;-70
2024/01/01 12:25:16;;;;;;;10.03;2.53;;;;;;;11.21;66.78;99963.22;5058187;28;20212;-71
2024/01/01 12:27:45;;;;;;;10.13;1.63;;;;;;;11.37;65.86;99976.50;5056160;28;20219;-72
2024/01/01 12:30:25;;;;;;;13.17;2.10;;;;;;;11.40;65.25;99965.56;5053221;28;20257;-70
2024/01/01 12:32:53;;;;;;;8.77;1.83;;;;;;;11.34;65.72;99963.56;5055460;28;20643;-72
2024/01/01 12:35:21;;;;;;;12.37;3.07;;;;;;;11.23;65.88;99961.25;5056632;28;20211;-71
2024/01/01 12:37:51;;;;;;;11.77;2.30;;;;;;;11.12;66.56;99962.38;5055086;28;20731;-70
2024/01/01 12:40:19;;;;;;;10.37;2.07;;;;;;;11.01;66.60;99964.50;5056086;28;20211;-71
2024/01/01 12:42:47;;;;;;;13.67;2.30;;;;;;;10.89;66.94;99964.00;5053999;28;20738;-72
2024/01/01 12:45:16;;;;;;;15.57;2.97;;;;;;;10.88;67.10;99963.19;5058844;28;20238;-72
2024/01/01 12:47:44;;;;;;;11.73;2.43;;;;;;;10.87;66.84;99961.50;5055577;28;20804;-71
2024/01/01 12:50:12;;;;;;;10.70;2.90;;;;;;;10.91;66.05;99951.38;5057498;28;20212;-70
2024/01/01 12:52:40;;;;;;;14.33;2.63;;;;;;;11.05;66.11;99960.53;5052996;28;20274;-71
2024/01/01 12:55:10;;;;;;;11.73;2.80;;;;;;;11.19;65.31;99957.22;5055666;28;20242;-72
2024/01/01 12:57:38;;;;;;;11.20;2.07;;;;;;;11.32;65.07;99961.09;5055687;28;20212;-71
2024/01/01 13:00:07;;;;;;;15.93;1.67;;;;;;;11.22;63.90;99959.56;5055008;28;20215;-72
2024/01/01 13:02:36;;;;;;;17.03;2.63;;;;;;;11.27;63.95;99946.63;5055953;28;20204;-71
2024/01/01 13:05:04;;;;;;;10.03;2.40;;;;;;;11.41;63.95;99956.59;5055699;28;20253;-71
2024/01/01 13:07:32;;;;;;;10.27;2.07;;;;;;;11.44;63.31;99956.25;5055799;28;20207;-70
2024/01/01 13:10:00;;;;;;;15.77;3.20;;;;;;;11.46;63.11;99950.78;5052728;28;20277;-72
2024/01/01 13:12:30;;;;;;;13.83;3.13;;;;;;;11.44;63.42;99953.59;5054823;28;20286;-71
2024/01/01 13:14:58;;;;;;;18.73;3.50;;;;;;;11.39;62.79;99947.97;5053379;28;20612;-71
2024/01/01 13:17:26;;;;;;;13.60;2.77;;;;;;;11.34;62.96;99947.66;5056954;28;20219;-72
2024/01/01 13:19:54;;;;;;;17.00;3.43;;;;;;;11.31;62.79;99947.97;5053901;28;20214;-72
2024/01/01 13:22:24;;;;;;;15.80;2.77;;;;;;;11.23;62.87;99945.31;5052880;28;20250;-71
2024/01/01 13:24:52;;;;;;;10.50;2.47;;;;;;;11.10;63.25;99950.25;5057310;28;20237;-71
2024/01/01 13:27:20;;;;;;;11.63;2.67;;;;;;;11.02;64.00;99958.22;5057618;28;20987;-71
2024/01/01 13:29:49;;;;;;;15.33;3.27;;;;;;;10.94;64.02;99951.06;5053422;28;20216;-72
2024/01/01 13:32:17;;;;;;;14.17;2.70;;;;;;;10.94;64.25;99953.72;5054676;28;20211;-71
2024/01/01 13:34:45;;;;;;;15.30;2.30;;;;;;;10.80;64.59;99944.59;5053706;28;20257;-71
2024/01/01 13:37:12;;;;;;;13.80;3.10;;;;;;;10.70;65.15;99965.09;5056495;28;20229;-70
2024/01/01 13:39:40;;;;;;;14.80;2.37;;;;;;;10.66;65.07;99962.94;5053811;28;20214;-72